Weather reports worldwide

Advertisment
East malling, United Kingdom (99008): temperature & dewpoint: 04.07.2020 03:00:00 - 10.07.2020 03:00:00 (BST)East malling, United Kingdom (99008): temperature -20cm: 04.07.2020 03:00:00 - 10.07.2020 03:00:00 (BST)East malling, United Kingdom (99008): wind speed & gusts: 04.07.2020 03:00:00 - 10.07.2020 03:00:00 (BST)East malling, United Kingdom (99008): wind direction: 04.07.2020 03:00:00 - 10.07.2020 03:00:00 (BST)East malling, United Kingdom (99008): reduced air pressure: 04.07.2020 03:00:00 - 10.07.2020 03:00:00 (BST)East malling, United Kingdom (99008): sunshine duration: 04.07.2020 03:00:00 - 10.07.2020 03:00:00 (BST)East malling, United Kingdom (99008): precipitation: 04.07.2020 03:00:00 - 10.07.2020 03:00:00 (BST)
Date & Time tt [°C] td [°C] tt -20cm [°C] ff [km/h] ff [kn] fx [km/h] fx [kn] dd ppp [hPa] sd [min] rr [mm]
10.07.2020 03:00:00 14,3 13,8 - 9 5 - - N 1012,2 0 0,2
10.07.2020 02:00:00 14,6 14,0 - 15 8 - - NW 1011,9 0 0,0
10.07.2020 01:00:00 15,5 14,5 - 16 9 - - NNW 1011,5 - 0,0
10.07.2020 00:00:00 15,7 14,8 - 11 6 - - NNW 1010,8 0 0,2
09.07.2020 23:00:00 16,7 15,3 - 9 5 - - WSW 1010,4 0 0,0
09.07.2020 22:00:00 17,0 15,0 - 13 7 - - WSW 1010,3 0 0,0
09.07.2020 21:00:00 17,4 14,8 - 13 7 - - WSW 1010,1 0 0,0
09.07.2020 20:00:00 18,0 14,7 - 16 9 - - WSW 1010,2 0 0,0
09.07.2020 19:00:00 18,4 14,8 - 18 10 - - WSW 1010,4 0 0,0
09.07.2020 18:00:00 18,0 15,0 - 15 8 - - WSW 1011,0 0 0,0
09.07.2020 17:00:00 17,9 15,1 - 15 8 - - WSW 1011,6 0 0,0
09.07.2020 16:00:00 18,1 15,1 - 18 10 - - SW 1011,8 0 0,0
09.07.2020 15:00:00 18,0 15,2 - 18 10 - - WSW 1012,2 0 0,0
09.07.2020 14:00:00 18,4 15,6 - 18 10 - - SW 1012,3 0 0,0
09.07.2020 13:00:00 17,9 15,3 - 21 11 - - SW 1012,5 0 0,0
09.07.2020 12:00:00 19,3 16,3 - 21 11 - - SW 1012,3 6 0,0
09.07.2020 11:00:00 17,9 15,6 - 15 8 - - WSW 1012,4 0 0,0
09.07.2020 10:00:00 17,4 15,2 18,2 16 9 - - WSW 1012,7 0 0,0
09.07.2020 09:00:00 17,1 15,0 - 16 9 - - WSW 1012,4 6 0,0
09.07.2020 08:00:00 16,6 14,9 - 16 9 - - SW 1012,2 12 0,0
09.07.2020 07:00:00 15,5 14,5 - 13 7 - - SW 1012,5 0 0,4
09.07.2020 06:00:00 15,9 14,5 - 15 8 - - SW 1012,8 0 0,0
09.07.2020 05:00:00 16,2 15,0 - 13 7 - - SW 1013,0 0 0,0
09.07.2020 04:00:00 16,4 15,3 - 15 8 - - SW 1013,3 0 0,0
09.07.2020 03:00:00 16,4 15,5 - 11 6 - - WSW 1013,7 0 0,0
09.07.2020 02:00:00 16,4 15,6 - 11 6 - - SW 1013,9 0 0,0
09.07.2020 01:00:00 16,6 15,7 - 9 5 - - WSW 1014,4 - 0,0
09.07.2020 00:00:00 16,9 16,0 - 11 6 - - SW 1014,4 0 0,0
08.07.2020 23:00:00 17,2 16,3 - 11 6 - - SW 1014,5 0 0,0
08.07.2020 22:00:00 17,5 16,6 - 11 6 - - SW 1014,5 0 0,0
08.07.2020 21:00:00 17,6 17,0 - 11 6 - - WSW 1014,6 0 0,8
08.07.2020 20:00:00 17,8 17,0 - 9 5 - - WSW 1014,9 0 0,2
08.07.2020 19:00:00 18,2 17,0 - 9 5 - - WSW 1014,9 0 0,0
08.07.2020 18:00:00 18,4 17,3 - 5 3 - - SW 1015,0 0 0,2
08.07.2020 17:00:00 18,5 16,3 - 9 5 - - WSW 1015,1 0 0,2
08.07.2020 16:00:00 18,5 17,0 - 8 4 - - W 1015,2 0 0,0
08.07.2020 15:00:00 19,0 17,2 - 11 6 - - W 1015,2 0 0,0
08.07.2020 14:00:00 18,4 16,1 - 11 6 - - W 1015,1 0 0,0
08.07.2020 13:00:00 17,9 16,3 - 11 6 - - WSW 1015,0 0 0,2
08.07.2020 12:00:00 17,4 15,6 - 13 7 - - WSW 1015,1 0 0,0
08.07.2020 11:00:00 16,9 15,3 - 11 6 - - WSW 1015,0 0 0,0
08.07.2020 10:00:00 16,5 15,3 18,5 11 6 - - WSW 1014,8 0 0,0
08.07.2020 09:00:00 15,7 14,8 - 11 6 - - WSW 1014,6 0 0,4
08.07.2020 08:00:00 15,1 14,5 - 9 5 - - WSW 1014,6 0 1,2
08.07.2020 07:00:00 14,7 14,2 - 9 5 - - WSW 1014,4 0 1,4
08.07.2020 06:00:00 14,5 14,0 - 11 6 - - WSW 1014,2 0 1,0
08.07.2020 05:00:00 14,3 13,8 - 11 6 - - SW 1014,3 0 1,2
08.07.2020 04:00:00 14,2 13,8 - 9 5 - - SW 1014,7 0 0,4
08.07.2020 03:00:00 14,0 13,6 - 8 4 - - SW 1015,3 0 0,4
08.07.2020 02:00:00 13,7 13,2 - 5 3 - - SSW 1015,9 0 0,4
08.07.2020 01:00:00 13,7 12,9 - 5 3 - - S 1016,7 - 0,8
08.07.2020 00:00:00 14,4 12,3 - 5 3 - - SSW 1016,8 0 0,4
07.07.2020 23:00:00 15,1 11,5 - 0 0 - - N 1017,3 0 0,0
07.07.2020 22:00:00 15,8 10,5 - 8 4 - - NNW 1017,5 0 0,0
07.07.2020 21:00:00 16,3 9,8 - 11 6 - - SW 1017,6 0 0,0
07.07.2020 20:00:00 17,3 9,5 - 15 8 - - SW 1017,6 0 0,0
07.07.2020 19:00:00 18,1 8,6 - 13 7 - - WSW 1017,7 0 0,0
07.07.2020 18:00:00 18,4 8,3 - 18 10 - - WSW 1018,0 0 0,0
07.07.2020 17:00:00 18,5 9,0 - 16 9 - - SW 1018,4 0 0,0
07.07.2020 16:00:00 18,7 8,9 - 18 10 - - WSW 1019,1 0 0,0
07.07.2020 15:00:00 19,7 8,7 - 21 11 - - WSW 1019,3 18 0,0
07.07.2020 14:00:00 - - - 18 10 - - W - 30 0,0
07.07.2020 13:00:00 - - - 13 7 - - WSW - 6 0,0
07.07.2020 12:00:00 19,7 7,5 - 13 7 - - SW 1020,6 42 0,0
07.07.2020 11:00:00 18,9 6,9 - 13 7 - - W 1020,9 54 0,0
07.07.2020 10:00:00 18,3 8,1 18,0 15 8 - - WSW 1021,4 60 0,0
07.07.2020 09:00:00 17,1 7,4 - 13 7 - - WSW 1021,6 60 0,0
07.07.2020 08:00:00 15,9 7,8 - 8 4 - - WSW 1022,0 42 0,0
07.07.2020 07:00:00 13,4 8,5 - 4 2 - - S 1022,0 6 0,0
07.07.2020 06:00:00 10,4 9,2 - 2 1 - - WNW 1022,2 0 0,0
07.07.2020 05:00:00 9,6 8,0 - 4 2 - - S 1022,0 0 0,0
07.07.2020 04:00:00 9,0 7,0 - 2 1 - - SW 1022,4 0 0,0
07.07.2020 03:00:00 9,8 6,8 - 5 3 - - SW 1022,7 0 0,0
07.07.2020 02:00:00 8,9 6,3 - 4 2 - - N 1023,0 0 0,0
07.07.2020 01:00:00 11,3 5,8 - 5 3 - - N 1023,1 - 0,0
07.07.2020 00:00:00 14,7 5,0 - 5 3 - - NW 1023,3 0 0,0
06.07.2020 23:00:00 15,4 8,2 - 9 5 - - NW 1023,2 0 0,0
06.07.2020 22:00:00 15,4 8,4 - 8 4 - - WSW 1022,5 0 0,0
06.07.2020 21:00:00 15,8 8,2 - 5 3 - - SW 1022,1 24 0,0
06.07.2020 20:00:00 18,8 7,4 - 13 7 - - WNW 1021,7 42 0,0
06.07.2020 19:00:00 18,4 7,6 - 13 7 - - WNW 1021,5 24 0,0
06.07.2020 18:00:00 19,4 7,7 - 16 9 - - NW 1021,4 30 0,0
06.07.2020 17:00:00 18,9 7,2 - 21 11 - - NW 1021,3 30 0,0
06.07.2020 16:00:00 19,6 6,6 - 18 10 - - NW 1020,9 24 0,0
06.07.2020 15:00:00 18,5 7,3 - 16 9 - - WNW 1020,8 6 0,0
06.07.2020 14:00:00 19,6 7,5 - 21 11 - - NW 1020,4 18 0,0
06.07.2020 13:00:00 17,2 7,4 - 18 10 - - WNW 1020,1 6 0,0
06.07.2020 12:00:00 18,1 8,2 - 18 10 - - W 1019,3 18 0,0
06.07.2020 11:00:00 16,5 6,9 - 18 10 - - W 1018,9 18 0,0
06.07.2020 10:00:00 17,1 8,1 18,0 21 11 - - WNW 1018,3 36 0,0
06.07.2020 09:00:00 15,4 8,0 - 21 11 - - NW 1018,1 48 0,0
06.07.2020 08:00:00 13,8 8,0 - 18 10 - - WNW 1017,4 42 0,0
06.07.2020 07:00:00 12,8 8,9 - 13 7 - - W 1016,7 54 0,0
06.07.2020 06:00:00 11,4 8,5 - 15 8 - - WSW 1016,3 0 0,0
06.07.2020 05:00:00 11,2 8,1 - 13 7 - - WSW 1015,8 0 0,0
06.07.2020 04:00:00 11,4 8,0 - 11 6 - - WSW 1015,4 0 0,0
06.07.2020 03:00:00 12,1 7,8 - 11 6 - - WSW 1015,1 0 0,0
06.07.2020 02:00:00 12,6 7,7 - 15 8 - - W 1015,0 0 0,0
06.07.2020 01:00:00 13,3 7,3 - 16 9 - - W 1014,8 - 0,0
06.07.2020 00:00:00 13,9 6,9 - 21 11 46 25 W 1014,4 0 0,0
05.07.2020 23:00:00 14,7 6,5 - 21 11 - - W 1013,9 0 0,0
05.07.2020 22:00:00 15,5 6,0 - 22 12 - - W 1013,7 0 0,0
05.07.2020 21:00:00 16,6 6,3 - 18 10 - - W 1013,0 0 0,0
05.07.2020 20:00:00 18,3 6,7 - 22 12 46 25 W 1012,5 42 0,0
05.07.2020 19:00:00 19,1 6,7 - 26 14 - - W 1012,0 54 0,0
05.07.2020 18:00:00 19,6 6,4 - 24 13 50 27 W 1011,9 54 0,0
05.07.2020 17:00:00 21,2 7,0 - 24 13 48 26 W 1011,5 54 0,0
05.07.2020 16:00:00 21,6 8,4 - 28 15 - - W 1011,2 54 0,0
05.07.2020 15:00:00 21,9 8,5 - 29 16 48 26 W 1011,1 60 0,0
05.07.2020 14:00:00 22,1 9,6 - 24 13 46 25 WSW 1010,8 60 0,0
05.07.2020 13:00:00 21,6 8,7 - 26 14 46 25 W 1010,9 54 0,0
05.07.2020 12:00:00 21,3 11,9 - 26 14 - - W 1010,4 42 0,0
05.07.2020 11:00:00 21,1 12,9 - 24 13 50 27 W 1010,1 54 0,0
05.07.2020 10:00:00 19,8 14,3 18,0 26 14 - - WSW 1010,0 30 0,0
05.07.2020 09:00:00 18,1 14,6 - 22 12 - - WSW 1010,1 0 0,0
05.07.2020 08:00:00 16,8 15,1 - 21 11 - - WSW 1009,7 0 0,0
05.07.2020 07:00:00 16,8 14,6 - 28 15 46 25 WSW 1009,3 0 0,0
05.07.2020 06:00:00 16,4 14,7 - 26 14 50 27 WSW 1009,2 0 0,0
05.07.2020 05:00:00 16,4 14,9 - 21 11 46 25 SW 1008,9 0 0,0
05.07.2020 04:00:00 15,9 14,6 - 26 14 - - SW 1009,2 0 0,0
05.07.2020 03:00:00 16,2 14,4 - 22 12 - - SW 1009,8 0 0,0
05.07.2020 02:00:00 16,2 14,1 - 28 15 52 28 SW 1009,9 0 0,0
05.07.2020 01:00:00 16,5 14,2 - 26 14 46 25 WSW 1010,7 - 0,0
05.07.2020 00:00:00 16,8 14,9 - 18 10 - - SW 1010,8 0 0,0
04.07.2020 23:00:00 16,8 15,1 - 15 8 - - SW 1011,3 0 0,0
04.07.2020 22:00:00 17,0 15,2 - 15 8 - - SW 1011,3 0 0,0
04.07.2020 21:00:00 17,2 15,1 - 16 9 - - SW 1011,1 0 0,0
04.07.2020 20:00:00 17,4 15,2 - 21 11 - - WSW 1010,9 0 0,0
04.07.2020 19:00:00 17,5 15,4 - 21 11 - - SW 1010,8 0 0,0
04.07.2020 18:00:00 17,7 15,4 - 21 11 - - SW 1011,1 0 0,0
04.07.2020 17:00:00 18,4 15,6 - 24 13 46 25 WSW 1011,2 0 0,0
04.07.2020 16:00:00 19,6 15,9 - 24 13 52 28 SW 1011,1 6 0,0
04.07.2020 15:00:00 19,0 15,5 - 24 13 55 30 WSW 1011,3 0 0,0
04.07.2020 14:00:00 19,1 15,7 - 28 15 52 28 WSW 1011,3 0 0,0
04.07.2020 13:00:00 18,4 15,4 - 24 13 48 26 WSW 1011,6 0 0,0
04.07.2020 12:00:00 18,4 15,9 - 24 13 - - SW 1011,3 0 0,0
04.07.2020 11:00:00 18,0 15,6 - 24 13 - - WSW 1011,3 0 0,0
04.07.2020 10:00:00 17,3 15,8 18,0 22 12 - - SW 1011,3 0 0,0
04.07.2020 09:00:00 16,6 15,5 - 18 10 - - SW 1011,5 0 0,2
04.07.2020 08:00:00 16,0 15,1 - 21 11 - - SW 1011,7 0 0,0
04.07.2020 07:00:00 15,9 14,5 - 22 12 46 25 SW 1011,8 0 0,0
04.07.2020 06:00:00 15,5 14,2 - 22 12 - - SW 1011,9 0 0,0
04.07.2020 05:00:00 15,1 14,0 - 22 12 - - SW 1012,4 0 0,2
04.07.2020 04:00:00 15,3 13,6 - 22 12 46 25 SW 1012,9 0 0,0
04.07.2020 03:00:00 15,1 13,4 - 24 13 50 27 SW 1013,3 0 0,0

tt = temperature
td = dewpoint
tt -20cm = temperature -20cm
ff = wind speed
fx = gusts
dd = wind direction
ppp = reduced air pressure
sd = sunshine duration
rr = precipitation

Next stations